メインページ
METAR-TAF:

METAR-TAF

空港 :

ラルナカ国際空港

ラルナカ, キプロス

緯度: 34-53N, 経度: 033-38E, 海抜: 2m

現時点の気象観測

当レポートは27分前の01:30(UTC)に作成
の風 8kt
気温 11°C
湿度 82%
気圧 1019 hPa
視程10km以上
高度2500ftの雲はほとんどない

METAR: LCLK 210130Z 35008KT 9999 FEW025 11/08 Q1019 NOSIG

時間: 03:57 (01:57 UTC)

予報

当レポートは2時間27分前の23:30(UTC)に作成
予報は21日の 00時(UTC)から 21日の 24時(UTC)まで有効
の風 9kt
視程10km以上
高度2500ftの雲はほとんどない
21日の 06時(UTC)から 21日の 10時(UTC)まで徐々に
北東の風 11kt
21日の 16時(UTC)から 21日の 20時(UTC)まで徐々に
北/北西の風 7kt

TAF: LCLK 202330Z 2100/2124 35009KT 9999 FEW025 BECMG 2106/2110 05011KT BECMG 2116/2120 33007KT

4,000以上の空港の気象観測と天気予報(METAR報とTAF報)

利用可能な観測所は地図上に黄色い丸と赤い丸で示す。

丸の上にカーソルを重ねると観測所名を参照できる。

次にクリックすると気象観測と天気予報を参照できる。

マップの切り替え:黒色「×」印の緑ボタンをクリックして拡大、「-」印の緑ボタンをクリックして縮小、緑色の三角印をクリックして隣りの地図に切り替え


METAR-TAF: